sensor_id;sensor_type;location;lat;lon;timestamp;P1;durP1;ratioP1;P2;durP2;ratioP2
26319;SDS011;14024;52.226;5.200;2023-09-08T00:01:48;16.88;;;12.07;;
26319;SDS011;14024;52.226;5.200;2023-09-08T00:04:13;17.65;;;12.27;;
26319;SDS011;14024;52.226;5.200;2023-09-08T00:06:40;14.70;;;11.57;;
26319;SDS011;14024;52.226;5.200;2023-09-08T00:09:06;17.92;;;12.70;;
26319;SDS011;14024;52.226;5.200;2023-09-08T00:11:31;18.08;;;12.27;;
26319;SDS011;14024;52.226;5.200;2023-09-08T00:13:57;14.30;;;12.45;;
26319;SDS011;14024;52.226;5.200;2023-09-08T00:16:22;16.95;;;12.32;;
26319;SDS011;14024;52.226;5.200;2023-09-08T00:18:47;18.58;;;12.50;;
26319;SDS011;14024;52.226;5.200;2023-09-08T00:21:13;18.38;;;11.63;;
26319;SDS011;14024;52.226;5.200;2023-09-08T00:23:38;18.30;;;11.88;;
26319;SDS011;14024;52.226;5.200;2023-09-08T00:26:04;15.73;;;11.88;;
26319;SDS011;14024;52.226;5.200;2023-09-08T00:28:29;17.92;;;11.88;;
26319;SDS011;14024;52.226;5.200;2023-09-08T00:30:55;19.75;;;11.85;;
26319;SDS011;14024;52.226;5.200;2023-09-08T00:33:20;15.88;;;11.77;;
26319;SDS011;14024;52.226;5.200;2023-09-08T00:35:50;19.25;;;12.55;;
26319;SDS011;14024;52.226;5.200;2023-09-08T00:38:16;15.82;;;12.00;;
26319;SDS011;14024;52.226;5.200;2023-09-08T00:40:42;16.38;;;11.85;;
26319;SDS011;14024;52.226;5.200;2023-09-08T00:43:07;18.33;;;11.95;;
26319;SDS011;14024;52.226;5.200;2023-09-08T00:45:32;17.52;;;11.52;;
26319;SDS011;14024;52.226;5.200;2023-09-08T00:48:03;17.05;;;12.27;;
26319;SDS011;14024;52.226;5.200;2023-09-08T00:50:29;18.55;;;12.77;;
26319;SDS011;14024;52.226;5.200;2023-09-08T00:52:55;16.50;;;11.75;;
26319;SDS011;14024;52.226;5.200;2023-09-08T00:55:21;18.13;;;12.23;;
26319;SDS011;14024;52.226;5.200;2023-09-08T00:57:46;17.50;;;12.65;;
26319;SDS011;14024;52.226;5.200;2023-09-08T01:00:11;18.58;;;12.43;;
26319;SDS011;14024;52.226;5.200;2023-09-08T01:02:37;16.77;;;11.88;;
26319;SDS011;14024;52.226;5.200;2023-09-08T01:05:03;17.10;;;12.25;;
26319;SDS011;14024;52.226;5.200;2023-09-08T01:07:29;18.05;;;12.90;;
26319;SDS011;14024;52.226;5.200;2023-09-08T01:09:56;14.57;;;11.90;;
26319;SDS011;14024;52.226;5.200;2023-09-08T01:12:22;17.15;;;12.27;;
26319;SDS011;14024;52.226;5.200;2023-09-08T01:14:48;15.75;;;12.40;;
26319;SDS011;14024;52.226;5.200;2023-09-08T01:17:13;17.02;;;12.10;;
26319;SDS011;14024;52.226;5.200;2023-09-08T01:19:38;19.30;;;13.32;;
26319;SDS011;14024;52.226;5.200;2023-09-08T01:27:10;14.70;;;12.07;;
26319;SDS011;14024;52.226;5.200;2023-09-08T01:29:37;17.48;;;12.98;;
26319;SDS011;14024;52.226;5.200;2023-09-08T01:32:04;21.23;;;12.40;;
26319;SDS011;14024;52.226;5.200;2023-09-08T01:34:30;16.85;;;11.88;;
26319;SDS011;14024;52.226;5.200;2023-09-08T01:36:56;15.57;;;12.13;;
26319;SDS011;14024;52.226;5.200;2023-09-08T01:39:22;16.83;;;11.70;;
26319;SDS011;14024;52.226;5.200;2023-09-08T01:41:47;16.08;;;12.35;;
26319;SDS011;14024;52.226;5.200;2023-09-08T01:44:13;18.45;;;11.90;;
26319;SDS011;14024;52.226;5.200;2023-09-08T01:46:38;14.45;;;11.77;;
26319;SDS011;14024;52.226;5.200;2023-09-08T01:49:05;15.50;;;11.90;;
26319;SDS011;14024;52.226;5.200;2023-09-08T01:51:31;16.73;;;11.35;;
26319;SDS011;14024;52.226;5.200;2023-09-08T01:53:56;15.07;;;11.93;;
26319;SDS011;14024;52.226;5.200;2023-09-08T01:56:22;16.02;;;12.43;;
26319;SDS011;14024;52.226;5.200;2023-09-08T01:58:48;15.85;;;11.93;;
26319;SDS011;14024;52.226;5.200;2023-09-08T02:01:13;13.18;;;11.40;;
26319;SDS011;14024;52.226;5.200;2023-09-08T02:03:38;14.40;;;11.10;;
26319;SDS011;14024;52.226;5.200;2023-09-08T02:06:04;22.45;;;12.10;;
26319;SDS011;14024;52.226;5.200;2023-09-08T02:08:29;14.90;;;11.85;;
26319;SDS011;14024;52.226;5.200;2023-09-08T02:10:54;17.05;;;12.13;;
26319;SDS011;14024;52.226;5.200;2023-09-08T02:13:20;14.40;;;11.80;;
26319;SDS011;14024;52.226;5.200;2023-09-08T02:15:45;16.48;;;11.95;;
26319;SDS011;14024;52.226;5.200;2023-09-08T02:18:10;13.70;;;11.18;;
26319;SDS011;14024;52.226;5.200;2023-09-08T02:20:37;14.95;;;11.65;;
26319;SDS011;14024;52.226;5.200;2023-09-08T02:23:05;14.10;;;11.00;;
26319;SDS011;14024;52.226;5.200;2023-09-08T02:25:32;18.60;;;11.60;;
26319;SDS011;14024;52.226;5.200;2023-09-08T02:27:57;18.42;;;12.48;;
26319;SDS011;14024;52.226;5.200;2023-09-08T02:30:22;19.40;;;11.95;;
26319;SDS011;14024;52.226;5.200;2023-09-08T02:32:49;16.42;;;11.55;;
26319;SDS011;14024;52.226;5.200;2023-09-08T02:35:15;14.75;;;11.10;;
26319;SDS011;14024;52.226;5.200;2023-09-08T02:37:40;14.10;;;11.48;;
26319;SDS011;14024;52.226;5.200;2023-09-08T02:40:06;14.20;;;11.40;;
26319;SDS011;14024;52.226;5.200;2023-09-08T02:42:32;14.55;;;11.40;;
26319;SDS011;14024;52.226;5.200;2023-09-08T02:44:57;15.65;;;10.27;;
26319;SDS011;14024;52.226;5.200;2023-09-08T02:47:24;14.80;;;10.57;;
26319;SDS011;14024;52.226;5.200;2023-09-08T02:49:52;15.82;;;11.57;;
26319;SDS011;14024;52.226;5.200;2023-09-08T02:52:18;14.40;;;11.82;;
26319;SDS011;14024;52.226;5.200;2023-09-08T02:54:44;18.27;;;11.05;;
26319;SDS011;14024;52.226;5.200;2023-09-08T02:57:10;17.50;;;11.77;;
26319;SDS011;14024;52.226;5.200;2023-09-08T02:59:35;16.10;;;11.48;;
26319;SDS011;14024;52.226;5.200;2023-09-08T03:02:01;22.60;;;12.85;;
26319;SDS011;14024;52.226;5.200;2023-09-08T03:04:26;17.17;;;12.07;;
26319;SDS011;14024;52.226;5.200;2023-09-08T03:06:51;15.32;;;11.40;;
26319;SDS011;14024;52.226;5.200;2023-09-08T03:09:17;15.40;;;12.60;;
26319;SDS011;14024;52.226;5.200;2023-09-08T03:11:42;17.27;;;11.60;;
26319;SDS011;14024;52.226;5.200;2023-09-08T03:14:07;20.30;;;12.80;;
26319;SDS011;14024;52.226;5.200;2023-09-08T03:16:33;14.60;;;11.48;;
26319;SDS011;14024;52.226;5.200;2023-09-08T03:18:58;12.88;;;11.18;;
26319;SDS011;14024;52.226;5.200;2023-09-08T03:21:23;15.93;;;11.45;;
26319;SDS011;14024;52.226;5.200;2023-09-08T03:23:49;20.45;;;12.00;;
26319;SDS011;14024;52.226;5.200;2023-09-08T03:26:14;16.05;;;12.40;;
26319;SDS011;14024;52.226;5.200;2023-09-08T03:28:41;16.17;;;10.98;;
26319;SDS011;14024;52.226;5.200;2023-09-08T03:31:07;16.80;;;11.52;;
26319;SDS011;14024;52.226;5.200;2023-09-08T03:33:33;17.75;;;12.25;;
26319;SDS011;14024;52.226;5.200;2023-09-08T03:35:58;16.27;;;12.50;;
26319;SDS011;14024;52.226;5.200;2023-09-08T03:38:24;18.58;;;13.00;;
26319;SDS011;14024;52.226;5.200;2023-09-08T03:40:49;18.70;;;12.00;;
26319;SDS011;14024;52.226;5.200;2023-09-08T03:43:15;13.82;;;11.43;;
26319;SDS011;14024;52.226;5.200;2023-09-08T03:45:40;17.17;;;12.20;;
26319;SDS011;14024;52.226;5.200;2023-09-08T03:48:06;15.57;;;12.27;;
26319;SDS011;14024;52.226;5.200;2023-09-08T03:50:31;18.15;;;12.43;;
26319;SDS011;14024;52.226;5.200;2023-09-08T03:52:57;15.93;;;11.65;;
26319;SDS011;14024;52.226;5.200;2023-09-08T03:55:22;19.58;;;12.23;;
26319;SDS011;14024;52.226;5.200;2023-09-08T03:57:48;15.68;;;12.02;;
26319;SDS011;14024;52.226;5.200;2023-09-08T04:00:13;17.63;;;11.85;;
26319;SDS011;14024;52.226;5.200;2023-09-08T04:02:45;16.63;;;11.43;;
26319;SDS011;14024;52.226;5.200;2023-09-08T04:05:10;14.50;;;11.23;;
26319;SDS011;14024;52.226;5.200;2023-09-08T04:07:36;15.57;;;11.98;;
26319;SDS011;14024;52.226;5.200;2023-09-08T04:10:01;17.63;;;12.02;;
26319;SDS011;14024;52.226;5.200;2023-09-08T04:12:28;20.52;;;12.15;;
26319;SDS011;14024;52.226;5.200;2023-09-08T04:14:53;18.73;;;13.38;;
26319;SDS011;14024;52.226;5.200;2023-09-08T04:17:18;15.95;;;12.25;;
26319;SDS011;14024;52.226;5.200;2023-09-08T04:19:44;15.95;;;11.45;;
26319;SDS011;14024;52.226;5.200;2023-09-08T04:22:09;16.48;;;11.70;;
26319;SDS011;14024;52.226;5.200;2023-09-08T04:24:35;19.83;;;12.30;;
26319;SDS011;14024;52.226;5.200;2023-09-08T04:27:01;15.35;;;12.00;;
26319;SDS011;14024;52.226;5.200;2023-09-08T04:29:27;14.68;;;12.00;;
26319;SDS011;14024;52.226;5.200;2023-09-08T04:31:52;18.02;;;12.80;;
26319;SDS011;14024;52.226;5.200;2023-09-08T04:34:18;16.25;;;12.25;;
26319;SDS011;14024;52.226;5.200;2023-09-08T04:36:43;18.25;;;12.55;;
26319;SDS011;14024;52.226;5.200;2023-09-08T04:39:09;15.85;;;12.60;;
26319;SDS011;14024;52.226;5.200;2023-09-08T04:41:36;17.38;;;12.73;;
26319;SDS011;14024;52.226;5.200;2023-09-08T04:44:01;22.05;;;13.38;;
26319;SDS011;14024;52.226;5.200;2023-09-08T04:46:27;16.40;;;12.52;;
26319;SDS011;14024;52.226;5.200;2023-09-08T04:48:52;20.95;;;13.13;;
26319;SDS011;14024;52.226;5.200;2023-09-08T04:51:17;20.13;;;12.60;;
26319;SDS011;14024;52.226;5.200;2023-09-08T04:53:43;18.63;;;12.50;;
26319;SDS011;14024;52.226;5.200;2023-09-08T04:56:08;22.63;;;12.80;;
26319;SDS011;14024;52.226;5.200;2023-09-08T04:58:34;17.52;;;12.15;;
26319;SDS011;14024;52.226;5.200;2023-09-08T05:00:59;21.55;;;13.32;;
26319;SDS011;14024;52.226;5.200;2023-09-08T05:03:24;20.90;;;14.20;;
26319;SDS011;14024;52.226;5.200;2023-09-08T05:05:51;19.13;;;12.80;;
26319;SDS011;14024;52.226;5.200;2023-09-08T05:08:16;19.55;;;13.65;;
26319;SDS011;14024;52.226;5.200;2023-09-08T05:10:43;19.67;;;13.75;;
26319;SDS011;14024;52.226;5.200;2023-09-08T05:13:09;20.45;;;14.13;;
26319;SDS011;14024;52.226;5.200;2023-09-08T05:15:35;20.52;;;13.65;;
26319;SDS011;14024;52.226;5.200;2023-09-08T05:18:00;21.42;;;13.70;;
26319;SDS011;14024;52.226;5.200;2023-09-08T05:20:25;20.02;;;13.15;;
26319;SDS011;14024;52.226;5.200;2023-09-08T05:22:51;27.58;;;14.85;;
26319;SDS011;14024;52.226;5.200;2023-09-08T05:25:16;19.25;;;13.40;;
26319;SDS011;14024;52.226;5.200;2023-09-08T05:27:42;24.42;;;14.55;;
26319;SDS011;14024;52.226;5.200;2023-09-08T05:30:07;21.17;;;13.23;;
26319;SDS011;14024;52.226;5.200;2023-09-08T05:32:33;22.83;;;12.57;;
26319;SDS011;14024;52.226;5.200;2023-09-08T05:34:59;19.48;;;13.80;;
26319;SDS011;14024;52.226;5.200;2023-09-08T05:37:24;20.33;;;13.45;;
26319;SDS011;14024;52.226;5.200;2023-09-08T05:39:49;20.23;;;13.05;;
26319;SDS011;14024;52.226;5.200;2023-09-08T05:42:15;19.05;;;14.13;;
26319;SDS011;14024;52.226;5.200;2023-09-08T05:44:40;19.25;;;13.48;;
26319;SDS011;14024;52.226;5.200;2023-09-08T05:47:06;18.92;;;13.65;;
26319;SDS011;14024;52.226;5.200;2023-09-08T05:49:31;22.65;;;13.75;;
26319;SDS011;14024;52.226;5.200;2023-09-08T05:51:57;19.40;;;13.70;;
26319;SDS011;14024;52.226;5.200;2023-09-08T05:54:22;21.90;;;13.18;;
26319;SDS011;14024;52.226;5.200;2023-09-08T05:56:47;18.65;;;13.73;;
26319;SDS011;14024;52.226;5.200;2023-09-08T05:59:13;22.30;;;13.38;;
26319;SDS011;14024;52.226;5.200;2023-09-08T06:01:38;16.95;;;12.68;;
26319;SDS011;14024;52.226;5.200;2023-09-08T06:04:04;24.23;;;14.00;;
26319;SDS011;14024;52.226;5.200;2023-09-08T06:06:30;31.02;;;14.60;;
26319;SDS011;14024;52.226;5.200;2023-09-08T06:08:55;29.20;;;15.45;;
26319;SDS011;14024;52.226;5.200;2023-09-08T06:11:21;33.45;;;15.32;;
26319;SDS011;14024;52.226;5.200;2023-09-08T06:13:46;33.10;;;14.77;;
26319;SDS011;14024;52.226;5.200;2023-09-08T06:16:12;35.42;;;15.43;;
26319;SDS011;14024;52.226;5.200;2023-09-08T06:18:37;25.95;;;13.98;;
26319;SDS011;14024;52.226;5.200;2023-09-08T06:21:06;29.02;;;13.85;;
26319;SDS011;14024;52.226;5.200;2023-09-08T06:23:32;26.95;;;14.73;;
26319;SDS011;14024;52.226;5.200;2023-09-08T06:25:59;22.02;;;13.80;;
26319;SDS011;14024;52.226;5.200;2023-09-08T06:28:25;25.67;;;13.98;;
26319;SDS011;14024;52.226;5.200;2023-09-08T06:30:51;31.58;;;14.40;;
26319;SDS011;14024;52.226;5.200;2023-09-08T06:33:17;22.98;;;12.60;;
26319;SDS011;14024;52.226;5.200;2023-09-08T06:35:42;24.70;;;14.02;;
26319;SDS011;14024;52.226;5.200;2023-09-08T06:38:07;20.20;;;12.68;;
26319;SDS011;14024;52.226;5.200;2023-09-08T06:40:33;21.30;;;12.90;;
26319;SDS011;14024;52.226;5.200;2023-09-08T06:42:58;20.88;;;12.98;;
26319;SDS011;14024;52.226;5.200;2023-09-08T06:45:23;19.05;;;12.82;;
26319;SDS011;14024;52.226;5.200;2023-09-08T06:47:50;19.15;;;12.25;;
26319;SDS011;14024;52.226;5.200;2023-09-08T06:50:19;18.63;;;13.05;;
26319;SDS011;14024;52.226;5.200;2023-09-08T06:52:45;20.90;;;13.95;;
26319;SDS011;14024;52.226;5.200;2023-09-08T06:55:10;21.83;;;13.88;;
26319;SDS011;14024;52.226;5.200;2023-09-08T06:57:36;17.17;;;11.48;;
26319;SDS011;14024;52.226;5.200;2023-09-08T07:00:01;15.45;;;10.32;;
26319;SDS011;14024;52.226;5.200;2023-09-08T07:02:28;17.67;;;11.02;;
26319;SDS011;14024;52.226;5.200;2023-09-08T07:04:54;18.60;;;12.55;;
26319;SDS011;14024;52.226;5.200;2023-09-08T07:07:19;13.98;;;10.65;;
26319;SDS011;14024;52.226;5.200;2023-09-08T07:09:45;14.48;;;11.15;;
26319;SDS011;14024;52.226;5.200;2023-09-08T07:12:12;27.85;;;9.38;;
26319;SDS011;14024;52.226;5.200;2023-09-08T07:14:37;17.83;;;11.95;;
26319;SDS011;14024;52.226;5.200;2023-09-08T07:17:03;17.85;;;9.82;;
26319;SDS011;14024;52.226;5.200;2023-09-08T07:19:28;20.52;;;11.50;;
26319;SDS011;14024;52.226;5.200;2023-09-08T07:21:55;20.20;;;12.68;;
26319;SDS011;14024;52.226;5.200;2023-09-08T07:24:20;15.50;;;10.05;;
26319;SDS011;14024;52.226;5.200;2023-09-08T07:26:46;17.60;;;13.00;;
26319;SDS011;14024;52.226;5.200;2023-09-08T07:29:11;15.80;;;10.43;;
26319;SDS011;14024;52.226;5.200;2023-09-08T07:31:37;19.75;;;10.80;;
26319;SDS011;14024;52.226;5.200;2023-09-08T07:34:03;16.35;;;10.07;;
26319;SDS011;14024;52.226;5.200;2023-09-08T07:36:28;18.05;;;10.88;;
26319;SDS011;14024;52.226;5.200;2023-09-08T07:38:54;15.02;;;9.55;;
26319;SDS011;14024;52.226;5.200;2023-09-08T07:41:19;13.70;;;9.50;;
26319;SDS011;14024;52.226;5.200;2023-09-08T07:43:45;13.10;;;9.90;;
26319;SDS011;14024;52.226;5.200;2023-09-08T07:46:10;15.50;;;10.85;;
26319;SDS011;14024;52.226;5.200;2023-09-08T07:48:36;15.18;;;10.65;;
26319;SDS011;14024;52.226;5.200;2023-09-08T07:51:01;13.63;;;9.57;;
26319;SDS011;14024;52.226;5.200;2023-09-08T07:53:27;12.88;;;9.80;;
26319;SDS011;14024;52.226;5.200;2023-09-08T07:55:53;13.60;;;9.95;;
26319;SDS011;14024;52.226;5.200;2023-09-08T07:58:18;14.10;;;9.93;;
26319;SDS011;14024;52.226;5.200;2023-09-08T08:00:43;15.63;;;9.25;;
26319;SDS011;14024;52.226;5.200;2023-09-08T08:03:09;13.10;;;8.95;;
26319;SDS011;14024;52.226;5.200;2023-09-08T08:05:36;15.35;;;9.57;;
26319;SDS011;14024;52.226;5.200;2023-09-08T08:08:01;14.05;;;9.10;;
26319;SDS011;14024;52.226;5.200;2023-09-08T08:10:27;11.88;;;9.63;;
26319;SDS011;14024;52.226;5.200;2023-09-08T08:12:52;16.23;;;10.88;;
26319;SDS011;14024;52.226;5.200;2023-09-08T08:15:19;13.88;;;9.95;;
26319;SDS011;14024;52.226;5.200;2023-09-08T08:17:47;14.15;;;10.75;;
26319;SDS011;14024;52.226;5.200;2023-09-08T08:20:13;13.10;;;9.85;;
26319;SDS011;14024;52.226;5.200;2023-09-08T08:22:43;11.30;;;8.55;;
26319;SDS011;14024;52.226;5.200;2023-09-08T08:25:10;16.02;;;11.35;;
26319;SDS011;14024;52.226;5.200;2023-09-08T08:27:39;13.02;;;9.65;;
26319;SDS011;14024;52.226;5.200;2023-09-08T08:30:05;14.85;;;9.80;;
26319;SDS011;14024;52.226;5.200;2023-09-08T08:32:32;11.07;;;8.60;;
26319;SDS011;14024;52.226;5.200;2023-09-08T08:34:58;15.07;;;9.85;;
26319;SDS011;14024;52.226;5.200;2023-09-08T08:37:24;17.05;;;10.48;;
26319;SDS011;14024;52.226;5.200;2023-09-08T08:39:50;11.68;;;8.98;;
26319;SDS011;14024;52.226;5.200;2023-09-08T08:42:16;11.25;;;9.25;;
26319;SDS011;14024;52.226;5.200;2023-09-08T08:44:41;17.98;;;10.20;;
26319;SDS011;14024;52.226;5.200;2023-09-08T08:47:10;10.07;;;8.45;;
26319;SDS011;14024;52.226;5.200;2023-09-08T08:49:37;13.90;;;10.05;;
26319;SDS011;14024;52.226;5.200;2023-09-08T08:52:04;14.15;;;9.32;;
26319;SDS011;14024;52.226;5.200;2023-09-08T08:54:34;13.05;;;8.85;;
26319;SDS011;14024;52.226;5.200;2023-09-08T08:57:02;11.45;;;8.57;;
26319;SDS011;14024;52.226;5.200;2023-09-08T08:59:30;13.32;;;9.48;;
26319;SDS011;14024;52.226;5.200;2023-09-08T09:01:57;15.45;;;9.10;;
26319;SDS011;14024;52.226;5.200;2023-09-08T09:04:25;12.77;;;9.77;;
26319;SDS011;14024;52.226;5.200;2023-09-08T09:06:52;12.70;;;8.88;;
26319;SDS011;14024;52.226;5.200;2023-09-08T09:09:20;15.57;;;9.38;;
26319;SDS011;14024;52.226;5.200;2023-09-08T09:11:45;15.98;;;9.48;;
26319;SDS011;14024;52.226;5.200;2023-09-08T09:14:11;13.93;;;8.80;;
26319;SDS011;14024;52.226;5.200;2023-09-08T09:16:40;13.65;;;9.27;;
26319;SDS011;14024;52.226;5.200;2023-09-08T09:19:06;13.70;;;9.65;;
26319;SDS011;14024;52.226;5.200;2023-09-08T09:21:45;11.77;;;9.25;;
26319;SDS011;14024;52.226;5.200;2023-09-08T09:24:28;12.10;;;8.98;;
26319;SDS011;14024;52.226;5.200;2023-09-08T09:26:57;15.02;;;9.20;;
26319;SDS011;14024;52.226;5.200;2023-09-08T09:29:23;17.55;;;8.70;;
26319;SDS011;14024;52.226;5.200;2023-09-08T09:31:52;10.57;;;8.98;;
26319;SDS011;14024;52.226;5.200;2023-09-08T09:34:23;11.90;;;9.30;;
26319;SDS011;14024;52.226;5.200;2023-09-08T09:36:51;9.45;;;8.23;;
26319;SDS011;14024;52.226;5.200;2023-09-08T09:39:17;10.90;;;8.30;;
26319;SDS011;14024;52.226;5.200;2023-09-08T09:41:46;15.07;;;9.38;;
26319;SDS011;14024;52.226;5.200;2023-09-08T09:44:13;11.60;;;9.23;;
26319;SDS011;14024;52.226;5.200;2023-09-08T09:46:43;10.65;;;8.18;;
26319;SDS011;14024;52.226;5.200;2023-09-08T09:49:10;15.77;;;10.45;;
26319;SDS011;14024;52.226;5.200;2023-09-08T09:51:42;12.10;;;9.80;;
26319;SDS011;14024;52.226;5.200;2023-09-08T09:54:13;9.52;;;8.35;;
26319;SDS011;14024;52.226;5.200;2023-09-08T09:56:39;13.10;;;9.48;;
26319;SDS011;14024;52.226;5.200;2023-09-08T09:59:09;17.88;;;8.68;;
26319;SDS011;14024;52.226;5.200;2023-09-08T10:01:36;14.60;;;8.93;;
26319;SDS011;14024;52.226;5.200;2023-09-08T10:04:03;16.20;;;8.52;;
26319;SDS011;14024;52.226;5.200;2023-09-08T10:06:31;11.35;;;7.95;;
26319;SDS011;14024;52.226;5.200;2023-09-08T10:09:01;12.10;;;7.65;;
26319;SDS011;14024;52.226;5.200;2023-09-08T10:11:31;13.15;;;8.15;;
26319;SDS011;14024;52.226;5.200;2023-09-08T10:14:03;12.75;;;8.80;;
26319;SDS011;14024;52.226;5.200;2023-09-08T10:16:31;11.90;;;8.25;;
26319;SDS011;14024;52.226;5.200;2023-09-08T10:18:59;9.48;;;7.68;;
26319;SDS011;14024;52.226;5.200;2023-09-08T10:21:26;10.45;;;8.05;;
26319;SDS011;14024;52.226;5.200;2023-09-08T10:23:57;11.32;;;8.60;;
26319;SDS011;14024;52.226;5.200;2023-09-08T10:26:28;10.52;;;7.53;;
26319;SDS011;14024;52.226;5.200;2023-09-08T10:28:55;9.43;;;7.95;;
26319;SDS011;14024;52.226;5.200;2023-09-08T10:31:27;11.93;;;8.45;;
26319;SDS011;14024;52.226;5.200;2023-09-08T10:33:55;11.30;;;7.90;;
26319;SDS011;14024;52.226;5.200;2023-09-08T10:36:22;13.45;;;8.88;;
26319;SDS011;14024;52.226;5.200;2023-09-08T10:38:54;9.75;;;8.50;;
26319;SDS011;14024;52.226;5.200;2023-09-08T10:41:41;13.00;;;8.65;;
26319;SDS011;14024;52.226;5.200;2023-09-08T10:44:07;9.63;;;7.70;;
26319;SDS011;14024;52.226;5.200;2023-09-08T10:46:33;12.05;;;8.30;;
26319;SDS011;14024;52.226;5.200;2023-09-08T10:49:06;11.85;;;8.23;;
26319;SDS011;14024;52.226;5.200;2023-09-08T10:51:32;9.80;;;8.48;;
26319;SDS011;14024;52.226;5.200;2023-09-08T10:53:58;12.07;;;9.77;;
26319;SDS011;14024;52.226;5.200;2023-09-08T10:56:28;14.10;;;8.93;;
26319;SDS011;14024;52.226;5.200;2023-09-08T10:59:12;11.32;;;8.20;;
26319;SDS011;14024;52.226;5.200;2023-09-08T11:01:38;10.70;;;8.10;;
26319;SDS011;14024;52.226;5.200;2023-09-08T11:04:04;11.27;;;8.65;;
26319;SDS011;14024;52.226;5.200;2023-09-08T11:06:33;10.90;;;8.35;;
26319;SDS011;14024;52.226;5.200;2023-09-08T11:09:05;10.98;;;7.85;;
26319;SDS011;14024;52.226;5.200;2023-09-08T11:11:32;11.52;;;8.02;;
26319;SDS011;14024;52.226;5.200;2023-09-08T11:13:58;10.10;;;7.85;;
26319;SDS011;14024;52.226;5.200;2023-09-08T11:16:24;9.73;;;7.63;;
26319;SDS011;14024;52.226;5.200;2023-09-08T11:18:54;11.32;;;8.65;;
26319;SDS011;14024;52.226;5.200;2023-09-08T11:21:20;11.52;;;8.20;;
26319;SDS011;14024;52.226;5.200;2023-09-08T11:23:45;12.27;;;7.50;;
26319;SDS011;14024;52.226;5.200;2023-09-08T11:26:11;9.80;;;8.10;;
26319;SDS011;14024;52.226;5.200;2023-09-08T11:28:37;9.93;;;8.73;;
26319;SDS011;14024;52.226;5.200;2023-09-08T11:31:03;9.30;;;8.07;;
26319;SDS011;14024;52.226;5.200;2023-09-08T11:33:32;9.60;;;7.57;;
26319;SDS011;14024;52.226;5.200;2023-09-08T11:35:59;8.82;;;7.38;;
26319;SDS011;14024;52.226;5.200;2023-09-08T11:38:25;15.63;;;8.52;;
26319;SDS011;14024;52.226;5.200;2023-09-08T11:40:51;13.18;;;8.27;;
26319;SDS011;14024;52.226;5.200;2023-09-08T11:43:18;9.70;;;8.00;;
26319;SDS011;14024;52.226;5.200;2023-09-08T11:45:44;9.45;;;7.60;;
26319;SDS011;14024;52.226;5.200;2023-09-08T11:48:09;8.85;;;7.38;;
26319;SDS011;14024;52.226;5.200;2023-09-08T11:50:35;11.32;;;8.23;;
26319;SDS011;14024;52.226;5.200;2023-09-08T11:53:00;9.43;;;7.88;;
26319;SDS011;14024;52.226;5.200;2023-09-08T11:55:27;11.07;;;8.23;;
26319;SDS011;14024;52.226;5.200;2023-09-08T11:57:53;10.23;;;7.97;;
26319;SDS011;14024;52.226;5.200;2023-09-08T12:00:22;11.27;;;7.40;;
26319;SDS011;14024;52.226;5.200;2023-09-08T12:02:49;12.20;;;8.00;;
26319;SDS011;14024;52.226;5.200;2023-09-08T12:05:25;13.02;;;8.25;;
26319;SDS011;14024;52.226;5.200;2023-09-08T12:07:52;8.30;;;7.45;;
26319;SDS011;14024;52.226;5.200;2023-09-08T12:10:21;11.82;;;7.47;;
26319;SDS011;14024;52.226;5.200;2023-09-08T12:12:48;9.07;;;7.22;;
26319;SDS011;14024;52.226;5.200;2023-09-08T12:15:31;8.93;;;7.40;;
26319;SDS011;14024;52.226;5.200;2023-09-08T12:17:57;10.40;;;8.10;;
26319;SDS011;14024;52.226;5.200;2023-09-08T12:20:23;14.65;;;7.68;;
26319;SDS011;14024;52.226;5.200;2023-09-08T12:22:49;11.85;;;7.70;;
26319;SDS011;14024;52.226;5.200;2023-09-08T12:25:17;11.68;;;7.75;;
26319;SDS011;14024;52.226;5.200;2023-09-08T12:27:44;11.30;;;8.00;;
26319;SDS011;14024;52.226;5.200;2023-09-08T12:30:16;11.35;;;8.25;;
26319;SDS011;14024;52.226;5.200;2023-09-08T12:32:44;12.95;;;8.50;;
26319;SDS011;14024;52.226;5.200;2023-09-08T12:35:12;12.73;;;8.10;;
26319;SDS011;14024;52.226;5.200;2023-09-08T12:37:38;12.43;;;7.13;;
26319;SDS011;14024;52.226;5.200;2023-09-08T12:40:04;12.35;;;8.32;;
26319;SDS011;14024;52.226;5.200;2023-09-08T12:42:30;12.07;;;7.80;;
26319;SDS011;14024;52.226;5.200;2023-09-08T12:44:55;12.18;;;8.68;;
26319;SDS011;14024;52.226;5.200;2023-09-08T12:47:21;8.75;;;7.80;;
26319;SDS011;14024;52.226;5.200;2023-09-08T12:49:46;12.05;;;8.40;;
26319;SDS011;14024;52.226;5.200;2023-09-08T12:52:12;11.40;;;8.85;;
26319;SDS011;14024;52.226;5.200;2023-09-08T12:54:37;13.93;;;8.32;;
26319;SDS011;14024;52.226;5.200;2023-09-08T12:57:03;12.02;;;9.02;;
26319;SDS011;14024;52.226;5.200;2023-09-08T12:59:29;11.60;;;8.43;;
26319;SDS011;14024;52.226;5.200;2023-09-08T13:01:54;11.10;;;8.10;;
26319;SDS011;14024;52.226;5.200;2023-09-08T13:04:21;11.27;;;8.55;;
26319;SDS011;14024;52.226;5.200;2023-09-08T13:06:47;13.10;;;8.38;;
26319;SDS011;14024;52.226;5.200;2023-09-08T13:09:14;12.07;;;8.27;;
26319;SDS011;14024;52.226;5.200;2023-09-08T13:11:39;12.52;;;8.55;;
26319;SDS011;14024;52.226;5.200;2023-09-08T13:14:05;11.52;;;8.40;;
26319;SDS011;14024;52.226;5.200;2023-09-08T13:16:30;13.15;;;9.10;;
26319;SDS011;14024;52.226;5.200;2023-09-08T13:18:56;11.93;;;8.70;;
26319;SDS011;14024;52.226;5.200;2023-09-08T13:21:21;12.73;;;9.80;;
26319;SDS011;14024;52.226;5.200;2023-09-08T13:23:46;12.75;;;9.55;;
26319;SDS011;14024;52.226;5.200;2023-09-08T13:26:13;17.67;;;9.53;;
26319;SDS011;14024;52.226;5.200;2023-09-08T13:28:38;10.85;;;9.20;;
26319;SDS011;14024;52.226;5.200;2023-09-08T13:31:04;12.93;;;8.43;;
26319;SDS011;14024;52.226;5.200;2023-09-08T13:33:29;13.93;;;9.00;;
26319;SDS011;14024;52.226;5.200;2023-09-08T13:35:55;14.35;;;8.13;;
26319;SDS011;14024;52.226;5.200;2023-09-08T13:38:21;15.82;;;9.68;;
26319;SDS011;14024;52.226;5.200;2023-09-08T13:40:46;11.10;;;8.95;;
26319;SDS011;14024;52.226;5.200;2023-09-08T13:43:11;15.40;;;8.95;;
26319;SDS011;14024;52.226;5.200;2023-09-08T13:45:37;12.73;;;8.95;;
26319;SDS011;14024;52.226;5.200;2023-09-08T13:48:03;11.75;;;8.98;;
26319;SDS011;14024;52.226;5.200;2023-09-08T13:50:31;14.30;;;8.38;;
26319;SDS011;14024;52.226;5.200;2023-09-08T13:52:56;12.30;;;8.52;;
26319;SDS011;14024;52.226;5.200;2023-09-08T13:55:22;12.80;;;8.82;;
26319;SDS011;14024;52.226;5.200;2023-09-08T13:57:49;14.20;;;9.02;;
26319;SDS011;14024;52.226;5.200;2023-09-08T14:00:15;15.10;;;9.40;;
26319;SDS011;14024;52.226;5.200;2023-09-08T14:02:41;12.82;;;8.32;;
26319;SDS011;14024;52.226;5.200;2023-09-08T14:05:08;11.35;;;8.77;;
26319;SDS011;14024;52.226;5.200;2023-09-08T14:07:34;11.43;;;8.50;;
26319;SDS011;14024;52.226;5.200;2023-09-08T14:10:00;12.73;;;8.82;;
26319;SDS011;14024;52.226;5.200;2023-09-08T14:12:29;13.32;;;8.60;;
26319;SDS011;14024;52.226;5.200;2023-09-08T14:14:59;10.98;;;8.18;;
26319;SDS011;14024;52.226;5.200;2023-09-08T14:17:25;12.75;;;8.15;;
26319;SDS011;14024;52.226;5.200;2023-09-08T14:19:50;15.93;;;9.40;;
26319;SDS011;14024;52.226;5.200;2023-09-08T14:22:15;13.15;;;8.75;;
26319;SDS011;14024;52.226;5.200;2023-09-08T14:24:41;13.85;;;8.23;;
26319;SDS011;14024;52.226;5.200;2023-09-08T14:27:06;11.18;;;7.97;;
26319;SDS011;14024;52.226;5.200;2023-09-08T14:29:33;13.07;;;8.70;;